createdAt,value
2023-05-15T00:00:43.535Z,9.719088
2023-05-15T00:01:43.510Z,9.719091
2023-05-15T00:02:43.695Z,9.719252
2023-05-15T00:03:43.549Z,9.719224
2023-05-15T00:04:43.563Z,9.719221
2023-05-15T00:05:43.501Z,9.719259
2023-05-15T00:06:43.506Z,9.719286
2023-05-15T00:07:43.448Z,9.719289
2023-05-15T00:08:43.438Z,9.719420
2023-05-15T00:09:43.435Z,9.719378
2023-05-15T00:10:53.960Z,9.719400
2023-05-15T00:11:44.406Z,9.719107
2023-05-15T00:12:43.396Z,9.719193
2023-05-15T00:13:43.437Z,9.719236
2023-05-15T00:14:43.371Z,9.719158
2023-05-15T00:15:43.408Z,9.719153
2023-05-15T00:16:43.546Z,9.719112
2023-05-15T00:17:43.370Z,9.719145
2023-05-15T00:18:43.383Z,9.719086
2023-05-15T00:19:43.324Z,9.719148
2023-05-15T00:20:43.301Z,9.718966
2023-05-15T00:21:43.316Z,9.719069
2023-05-15T00:22:43.316Z,9.719139
2023-05-15T00:23:43.298Z,9.719279
2023-05-15T00:24:43.273Z,9.719373
2023-05-15T00:25:43.262Z,9.719105
2023-05-15T00:26:43.250Z,9.719206
2023-05-15T00:27:43.240Z,9.718995
2023-05-15T00:28:43.247Z,9.719161
2023-05-15T00:29:43.216Z,9.719084
2023-05-15T00:30:43.221Z,9.719367
2023-05-15T00:31:43.267Z,9.719315
2023-05-15T00:32:43.236Z,9.719255
2023-05-15T00:33:43.207Z,9.719000
2023-05-15T00:34:43.175Z,9.719108
2023-05-15T00:35:44.188Z,9.718956
2023-05-15T00:36:43.167Z,9.719103
2023-05-15T00:37:43.157Z,9.719053
2023-05-15T00:38:43.142Z,9.719045
2023-05-15T00:39:43.168Z,9.719131
2023-05-15T00:40:43.119Z,9.719099
2023-05-15T00:41:43.108Z,9.719085
2023-05-15T00:42:43.099Z,9.719133
2023-05-15T00:43:43.114Z,9.718999
2023-05-15T00:44:43.079Z,9.719039
2023-05-15T00:45:43.079Z,9.719043
2023-05-15T00:46:43.178Z,9.719053
2023-05-15T00:47:43.086Z,9.719111
2023-05-15T00:48:43.052Z,9.719136
2023-05-15T00:49:43.044Z,9.719146
2023-05-15T00:50:43.025Z,9.719143
2023-05-15T00:51:43.023Z,9.719086
2023-05-15T00:52:42.998Z,9.719075
2023-05-15T00:53:43.010Z,9.719042
2023-05-15T00:54:43.002Z,9.719116
2023-05-15T00:55:42.972Z,9.719200
2023-05-15T00:56:42.964Z,9.719164
2023-05-15T00:57:42.942Z,9.719111
2023-05-15T00:58:42.939Z,9.719111
2023-05-15T00:59:42.939Z,9.719164
2023-05-15T01:00:42.930Z,9.719148
2023-05-15T01:01:42.900Z,9.719177
2023-05-15T01:02:42.950Z,9.719209
2023-05-15T01:03:42.895Z,9.719141
2023-05-15T01:04:42.897Z,9.719103
2023-05-15T01:05:42.857Z,9.719091
2023-05-15T01:06:42.885Z,9.719169
2023-05-15T01:07:42.839Z,9.719197
2023-05-15T01:08:42.852Z,9.719189
2023-05-15T01:09:42.826Z,9.719241
2023-05-15T01:10:42.837Z,9.719198
2023-05-15T01:11:42.836Z,9.719133
2023-05-15T01:12:42.797Z,9.719128
2023-05-15T01:13:42.795Z,9.719172
2023-05-15T01:14:42.781Z,9.719175
2023-05-15T01:15:42.789Z,9.719189
2023-05-15T01:16:42.760Z,9.719209
2023-05-15T01:17:42.786Z,9.719260
2023-05-15T01:18:42.778Z,9.719253
2023-05-15T01:19:43.035Z,9.719210
2023-05-15T01:20:42.738Z,9.719205
2023-05-15T01:21:42.733Z,9.719208
2023-05-15T01:22:42.684Z,9.719233
2023-05-15T01:23:42.685Z,9.719028
2023-05-15T01:24:42.667Z,9.719118
2023-05-15T01:25:42.654Z,9.719140
2023-05-15T01:26:42.670Z,9.719128
2023-05-15T01:27:42.654Z,9.719030
2023-05-15T01:28:42.648Z,9.719138
2023-05-15T01:29:42.624Z,9.719195
2023-05-15T01:30:42.618Z,9.719205
2023-05-15T01:31:42.673Z,9.719194
2023-05-15T01:32:42.618Z,9.719220
2023-05-15T01:33:42.597Z,9.719195
2023-05-15T01:34:42.616Z,9.719173
2023-05-15T01:35:42.559Z,9.719150
2023-05-15T01:36:42.545Z,9.719145
2023-05-15T01:37:42.562Z,9.719147
2023-05-15T01:38:42.611Z,9.719130
2023-05-15T01:39:42.518Z,9.719193
2023-05-15T01:40:42.510Z,9.719169
2023-05-15T01:41:42.495Z,9.719205
2023-05-15T01:42:42.504Z,9.719358
2023-05-15T01:43:42.540Z,9.719437
2023-05-15T01:44:42.478Z,9.719419
2023-05-15T01:45:42.467Z,9.719286
2023-05-15T01:46:42.492Z,9.719250
2023-05-15T01:47:42.466Z,9.719189
2023-05-15T01:48:42.429Z,9.719341
2023-05-15T01:49:42.417Z,9.719350
2023-05-15T01:50:42.409Z,9.719418
2023-05-15T01:51:42.415Z,9.719284
2023-05-15T01:52:42.383Z,9.719245
2023-05-15T01:53:42.383Z,9.719213
2023-05-15T01:54:42.390Z,9.719156
2023-05-15T01:55:42.376Z,9.719193
2023-05-15T01:56:42.363Z,9.719238
2023-05-15T01:57:42.342Z,9.719236
2023-05-15T01:58:42.337Z,9.719222
2023-05-15T01:59:42.356Z,9.719234
2023-05-15T02:00:42.314Z,9.719290
2023-05-15T02:01:42.332Z,9.719189
2023-05-15T02:02:42.439Z,9.719256
2023-05-15T02:03:42.333Z,9.719331
2023-05-15T02:04:42.309Z,9.719327
2023-05-15T02:05:42.293Z,9.719328
2023-05-15T02:06:42.263Z,9.719319
2023-05-15T02:07:42.249Z,9.719204
2023-05-15T02:08:42.236Z,9.719221
2023-05-15T02:09:42.301Z,9.719195
2023-05-15T02:10:42.245Z,9.719222
2023-05-15T02:11:42.247Z,9.719052
2023-05-15T02:12:43.203Z,9.719275
2023-05-15T02:13:42.182Z,9.719319
2023-05-15T02:14:42.184Z,9.719308
2023-05-15T02:15:42.172Z,9.719307
2023-05-15T02:16:42.288Z,9.719315
2023-05-15T02:17:42.176Z,9.719349
2023-05-15T02:18:42.193Z,9.719545
2023-05-15T02:19:42.139Z,9.719398
2023-05-15T02:20:42.126Z,9.719354
2023-05-15T02:21:42.121Z,9.719255
2023-05-15T02:22:42.095Z,9.719259
2023-05-15T02:23:43.086Z,9.719260
2023-05-15T02:24:42.093Z,9.719438
2023-05-15T02:25:42.078Z,9.719245
2023-05-15T02:26:42.150Z,9.719325
2023-05-15T02:27:42.041Z,9.719247
2023-05-15T02:28:42.038Z,9.719285
2023-05-15T02:29:42.026Z,9.719237
2023-05-15T02:30:42.013Z,9.719242
2023-05-15T02:31:42.042Z,9.719208
2023-05-15T02:32:42.017Z,9.719238
2023-05-15T02:33:42.004Z,9.719232
2023-05-15T02:34:41.981Z,9.719260
2023-05-15T02:35:42.042Z,9.719220
2023-05-15T02:36:41.974Z,9.719167
2023-05-15T02:37:41.956Z,9.719226
2023-05-15T02:38:41.971Z,9.719285
2023-05-15T02:39:41.917Z,9.719252
2023-05-15T02:40:42.049Z,9.719243
2023-05-15T02:41:41.915Z,9.719247
2023-05-15T02:42:41.887Z,9.719229
2023-05-15T02:43:41.906Z,9.719253
2023-05-15T02:44:41.908Z,9.719214
2023-05-15T02:45:41.909Z,9.719216
2023-05-15T02:46:41.890Z,9.719171
2023-05-15T02:47:41.888Z,9.719251
2023-05-15T02:48:41.849Z,9.719157
2023-05-15T02:49:41.852Z,9.719130
2023-05-15T02:50:41.815Z,9.719154
2023-05-15T02:51:41.853Z,9.719181
2023-05-15T02:52:41.797Z,9.719161
2023-05-15T02:53:41.816Z,9.719226
2023-05-15T02:54:41.808Z,9.719240
2023-05-15T02:55:41.806Z,9.719173
2023-05-15T02:56:41.757Z,9.719187
2023-05-15T02:57:41.759Z,9.719296
2023-05-15T02:58:41.738Z,9.719332
2023-05-15T02:59:42.739Z,9.719191
2023-05-15T03:00:41.769Z,9.719192
2023-05-15T03:01:41.779Z,9.719216
2023-05-15T03:02:41.728Z,9.719249
2023-05-15T03:03:41.699Z,9.719136
2023-05-15T03:04:41.765Z,9.719027
2023-05-15T03:05:42.718Z,9.719264
2023-05-15T03:06:41.713Z,9.719176
2023-05-15T03:07:41.677Z,9.719210
2023-05-15T03:08:41.655Z,9.719285
2023-05-15T03:09:41.644Z,9.719413
2023-05-15T03:10:41.634Z,9.718925
2023-05-15T03:11:41.655Z,9.719344
2023-05-15T03:12:41.596Z,9.719373
2023-05-15T03:13:41.602Z,9.719423
2023-05-15T03:14:41.574Z,9.719216
2023-05-15T03:15:41.574Z,9.718993
2023-05-15T03:16:41.596Z,9.719371
2023-05-15T03:17:41.669Z,9.719974
2023-05-15T03:18:41.626Z,9.719865
2023-05-15T03:19:41.545Z,9.719407
2023-05-15T03:20:41.526Z,9.718912
2023-05-15T03:21:41.513Z,9.719160
2023-05-15T03:22:41.517Z,9.719118
2023-05-15T03:23:41.506Z,9.719077
2023-05-15T03:24:41.494Z,9.719350
2023-05-15T03:25:41.495Z,9.719391
2023-05-15T03:26:41.468Z,9.719301
2023-05-15T03:27:41.457Z,9.719105
2023-05-15T03:28:42.365Z,9.719242
2023-05-15T03:29:41.425Z,9.719319
2023-05-15T03:30:41.441Z,9.719259
2023-05-15T03:31:41.422Z,9.719125
2023-05-15T03:32:41.472Z,9.719182
2023-05-15T03:33:41.392Z,9.719231
2023-05-15T03:34:41.384Z,9.719209
2023-05-15T03:35:41.422Z,9.719164
2023-05-15T03:36:41.370Z,9.719321
2023-05-15T03:37:41.354Z,9.719299
2023-05-15T03:38:41.338Z,9.719286
2023-05-15T03:39:41.334Z,9.719288
2023-05-15T03:40:41.354Z,9.719352
2023-05-15T03:41:41.346Z,9.719332
2023-05-15T03:42:41.294Z,9.719280
2023-05-15T03:43:41.287Z,9.719291
2023-05-15T03:44:41.294Z,9.719366
2023-05-15T03:45:41.286Z,9.719397
2023-05-15T03:46:41.314Z,9.719359
2023-05-15T03:47:41.262Z,9.719370
2023-05-15T03:48:41.268Z,9.719278
2023-05-15T03:49:41.256Z,9.719305
2023-05-15T03:50:41.227Z,9.719367
2023-05-15T03:51:41.213Z,9.719259
2023-05-15T03:52:42.219Z,9.719352
2023-05-15T03:53:41.226Z,9.719351
2023-05-15T03:54:41.184Z,9.719348
2023-05-15T03:55:41.170Z,9.719245
2023-05-15T03:56:41.177Z,9.719349
2023-05-15T03:57:41.144Z,9.719335
2023-05-15T03:58:41.155Z,9.719319
2023-05-15T03:59:41.128Z,9.719318
2023-05-15T04:00:41.195Z,9.719306
2023-05-15T04:01:55.339Z,9.719291
2023-05-15T04:02:42.144Z,9.719338
2023-05-15T04:03:41.135Z,9.719183
2023-05-15T04:04:41.108Z,9.719288
2023-05-15T04:05:41.178Z,9.719359
2023-05-15T04:06:41.046Z,9.719252
2023-05-15T04:07:41.043Z,9.719284
2023-05-15T04:08:41.599Z,9.719424
2023-05-15T04:09:42.055Z,9.719564
2023-05-15T04:10:41.030Z,9.719406
2023-05-15T04:11:41.021Z,9.719280
2023-05-15T04:12:41.002Z,9.719347
2023-05-15T04:13:40.985Z,9.719511
2023-05-15T04:14:40.972Z,9.719398
2023-05-15T04:15:40.975Z,9.719421
2023-05-15T04:16:41.039Z,9.719425
2023-05-15T04:17:40.966Z,9.719397
2023-05-15T04:18:40.973Z,9.719513
2023-05-15T04:19:41.181Z,9.719552
2023-05-15T04:20:41.967Z,9.719435
2023-05-15T04:21:40.912Z,9.719559
2023-05-15T04:22:40.905Z,9.719596
2023-05-15T04:23:40.890Z,9.719561
2023-05-15T04:24:40.873Z,9.719541
2023-05-15T04:25:40.907Z,9.719459
2023-05-15T04:26:40.877Z,9.719437
2023-05-15T04:27:40.875Z,9.719456
2023-05-15T04:28:49.382Z,9.719565
2023-05-15T04:29:40.836Z,9.719565
2023-05-15T04:30:40.815Z,9.719457
2023-05-15T04:31:40.943Z,9.719510
2023-05-15T04:32:41.830Z,9.719543
2023-05-15T04:33:40.810Z,9.719332
2023-05-15T04:34:40.785Z,9.719449
2023-05-15T04:35:40.776Z,9.719482
2023-05-15T04:36:42.814Z,9.719240
2023-05-15T04:37:41.813Z,9.719296
2023-05-15T04:38:40.736Z,9.719298
2023-05-15T04:39:40.731Z,9.719245
2023-05-15T04:40:40.737Z,9.719180
2023-05-15T04:41:40.719Z,9.719250
2023-05-15T04:42:40.748Z,9.719245
2023-05-15T04:43:54.418Z,9.719165
2023-05-15T04:44:40.730Z,9.719054
2023-05-15T04:45:40.703Z,9.719110
2023-05-15T04:46:40.721Z,9.719280
2023-05-15T04:47:40.692Z,9.719268
2023-05-15T04:48:40.680Z,9.719147
2023-05-15T04:49:40.641Z,9.719080
2023-05-15T04:50:40.673Z,9.719271
2023-05-15T04:51:40.646Z,9.719093
2023-05-15T04:52:40.624Z,9.719142
2023-05-15T04:53:40.611Z,9.719090
2023-05-15T04:54:40.616Z,9.719067
2023-05-15T04:55:40.596Z,9.719232
2023-05-15T04:56:40.596Z,9.719221
2023-05-15T04:57:40.576Z,9.719303
2023-05-15T04:58:40.576Z,9.719239
2023-05-15T04:59:40.545Z,9.719022
2023-05-15T05:00:40.530Z,9.718985
2023-05-15T05:01:40.595Z,9.719102
2023-05-15T05:02:40.547Z,9.719078
2023-05-15T05:03:40.587Z,9.719115
2023-05-15T05:04:40.512Z,9.719078
2023-05-15T05:05:40.485Z,9.719007
2023-05-15T05:06:40.483Z,9.718998
2023-05-15T05:07:40.525Z,9.718988
2023-05-15T05:08:40.483Z,9.718939
2023-05-15T05:09:40.448Z,9.718705
2023-05-15T05:10:40.450Z,9.719066
2023-05-15T05:11:40.442Z,9.719131
2023-05-15T05:12:40.420Z,9.719065
2023-05-15T05:13:40.413Z,9.719119
2023-05-15T05:14:40.492Z,9.719414
2023-05-15T05:15:40.440Z,9.719163
2023-05-15T05:16:40.369Z,9.718976
2023-05-15T05:17:40.388Z,9.719129
2023-05-15T05:18:40.375Z,9.718957
2023-05-15T05:19:40.348Z,9.719104
2023-05-15T05:20:40.368Z,9.719212
2023-05-15T05:21:40.320Z,9.719273
2023-05-15T05:22:40.337Z,9.719121
2023-05-15T05:23:40.330Z,9.719262
2023-05-15T05:24:40.308Z,9.719347
2023-05-15T05:25:40.301Z,9.719392
2023-05-15T05:26:40.278Z,9.719034
2023-05-15T05:27:40.294Z,9.718790
2023-05-15T05:28:40.278Z,9.718779
2023-05-15T05:29:40.255Z,9.719016
2023-05-15T05:30:40.225Z,9.719028
2023-05-15T05:31:40.298Z,9.719030
2023-05-15T05:32:40.279Z,9.719160
2023-05-15T05:33:40.202Z,9.719173
2023-05-15T05:34:40.194Z,9.719049
2023-05-15T05:35:40.202Z,9.719033
2023-05-15T05:36:40.221Z,9.719228
2023-05-15T05:37:41.248Z,9.719249
2023-05-15T05:38:40.149Z,9.719151
2023-05-15T05:39:40.146Z,9.719168
2023-05-15T05:40:40.135Z,9.719058
2023-05-15T05:41:40.124Z,9.719138
2023-05-15T05:42:40.111Z,9.719106
2023-05-15T05:43:40.146Z,9.719181
2023-05-15T05:44:40.092Z,9.719154
2023-05-15T05:45:40.093Z,9.719150
2023-05-15T05:46:40.103Z,9.719095
2023-05-15T05:47:40.157Z,9.719040
2023-05-15T05:48:40.081Z,9.719082
2023-05-15T05:49:40.064Z,9.718925
2023-05-15T05:50:40.082Z,9.718955
2023-05-15T05:51:40.027Z,9.718954
2023-05-15T05:52:40.020Z,9.719039
2023-05-15T05:53:40.001Z,9.719105
2023-05-15T05:54:40.014Z,9.719185
2023-05-15T05:55:39.981Z,9.719125
2023-05-15T05:56:39.982Z,9.719138
2023-05-15T05:57:39.963Z,9.719130
2023-05-15T05:58:39.958Z,9.719178
2023-05-15T05:59:39.990Z,9.719122
2023-05-15T06:00:39.938Z,9.719175
2023-05-15T06:01:39.938Z,9.718972
2023-05-15T06:02:39.985Z,9.718999
2023-05-15T06:03:39.991Z,9.718996
2023-05-15T06:04:39.911Z,9.718996
2023-05-15T06:05:39.899Z,9.719147
2023-05-15T06:06:39.870Z,9.719193
2023-05-15T06:07:39.875Z,9.719140
2023-05-15T06:08:40.074Z,9.719114
2023-05-15T06:09:39.854Z,9.719117
2023-05-15T06:10:39.854Z,9.718968
2023-05-15T06:11:39.824Z,9.719264
2023-05-15T06:12:39.820Z,9.719332
2023-05-15T06:13:39.829Z,9.719093
2023-05-15T06:14:39.797Z,9.719338
2023-05-15T06:15:39.784Z,9.719164
2023-05-15T06:16:39.878Z,9.719259
2023-05-15T06:17:39.821Z,9.719216
2023-05-15T06:18:39.809Z,9.719216
2023-05-15T06:19:39.741Z,9.719189
2023-05-15T06:20:39.761Z,9.719213
2023-05-15T06:21:39.738Z,9.719313
2023-05-15T06:22:39.715Z,9.719255
2023-05-15T06:23:39.754Z,9.719266
2023-05-15T06:24:39.684Z,9.719248
2023-05-15T06:25:39.676Z,9.719208
2023-05-15T06:26:39.674Z,9.719140
2023-05-15T06:27:39.676Z,9.719227
2023-05-15T06:28:39.709Z,9.719193
2023-05-15T06:29:39.645Z,9.719259
2023-05-15T06:30:40.525Z,9.719234
2023-05-15T06:31:39.661Z,9.719136
2023-05-15T06:32:39.719Z,9.719146
2023-05-15T06:33:39.605Z,9.719073
2023-05-15T06:34:39.593Z,9.719083
2023-05-15T06:35:39.627Z,9.719178
2023-05-15T06:36:39.588Z,9.719270
2023-05-15T06:37:39.568Z,9.719091
2023-05-15T06:38:39.552Z,9.719186
2023-05-15T06:39:39.543Z,9.719113
2023-05-15T06:40:39.557Z,9.719222
2023-05-15T06:41:39.555Z,9.719121
2023-05-15T06:42:39.519Z,9.719028
2023-05-15T06:43:39.507Z,9.719191
2023-05-15T06:44:39.509Z,9.719315
2023-05-15T06:45:39.515Z,9.719426
2023-05-15T06:46:39.580Z,9.719412
2023-05-15T06:47:39.527Z,9.719501
2023-05-15T06:48:39.462Z,9.719572
2023-05-15T06:49:39.435Z,9.719222
2023-05-15T06:50:40.437Z,9.718981
2023-05-15T06:51:39.433Z,9.719231
2023-05-15T06:52:39.446Z,9.719468
2023-05-15T06:53:39.425Z,9.719371
2023-05-15T06:54:39.432Z,9.719233
2023-05-15T06:55:39.399Z,9.719308
2023-05-15T06:56:39.451Z,9.719383
2023-05-15T06:57:39.391Z,9.719608
2023-05-15T06:58:39.377Z,9.719419
2023-05-15T06:59:39.404Z,9.719254
2023-05-15T07:00:39.354Z,9.719200
2023-05-15T07:01:39.389Z,9.719149
2023-05-15T07:02:39.393Z,9.719191
2023-05-15T07:03:39.334Z,9.719328
2023-05-15T07:04:39.360Z,9.719174
2023-05-15T07:05:39.324Z,9.719115
2023-05-15T07:06:39.312Z,9.719248
2023-05-15T07:07:39.265Z,9.719153
2023-05-15T07:08:39.248Z,9.719170
2023-05-15T07:09:39.244Z,9.719215
2023-05-15T07:10:39.301Z,9.719151
2023-05-15T07:11:39.215Z,9.719298
2023-05-15T07:12:39.709Z,9.719157
2023-05-15T07:13:39.209Z,9.719241
2023-05-15T07:14:39.237Z,9.719219
2023-05-15T07:15:39.193Z,9.719336
2023-05-15T07:16:39.193Z,9.719316
2023-05-15T07:17:39.239Z,9.719324
2023-05-15T07:18:39.283Z,9.719316
2023-05-15T07:19:39.164Z,9.719325
2023-05-15T07:20:39.305Z,9.719357
2023-05-15T07:21:39.180Z,9.719408
2023-05-15T07:22:51.993Z,9.719311
2023-05-15T07:23:41.131Z,9.719243
2023-05-15T07:24:40.450Z,9.719320
2023-05-15T07:25:40.806Z,9.719343
2023-05-15T07:26:50.174Z,9.719213
2023-05-15T07:27:41.102Z,9.719150
2023-05-15T07:28:39.078Z,9.719229
2023-05-15T07:29:39.059Z,9.719170
2023-05-15T07:30:39.066Z,9.719170
2023-05-15T07:31:39.036Z,9.719148
2023-05-15T07:32:39.037Z,9.719237
2023-05-15T07:33:38.988Z,9.719308
2023-05-15T07:34:39.008Z,9.719393
2023-05-15T07:35:38.988Z,9.719305
2023-05-15T07:36:38.992Z,9.719254
2023-05-15T07:37:38.974Z,9.719102
2023-05-15T07:38:38.971Z,9.719131
2023-05-15T07:39:38.997Z,9.719268
2023-05-15T07:40:38.965Z,9.719296
2023-05-15T07:41:38.962Z,9.719324
2023-05-15T07:42:38.999Z,9.719151
2023-05-15T07:43:38.933Z,9.719244
2023-05-15T07:44:39.179Z,9.719243
2023-05-15T07:45:38.929Z,9.719232
2023-05-15T07:46:39.011Z,9.719198
2023-05-15T07:47:38.922Z,9.719337
2023-05-15T07:48:38.880Z,9.719284
2023-05-15T07:49:38.857Z,9.719254
2023-05-15T07:50:38.854Z,9.719252
2023-05-15T07:51:38.845Z,9.719277
2023-05-15T07:52:38.810Z,9.719310
2023-05-15T07:53:38.793Z,9.719337
2023-05-15T07:54:38.806Z,9.719188
2023-05-15T07:55:38.806Z,9.719217
2023-05-15T07:56:39.457Z,9.719261
2023-05-15T07:57:38.806Z,9.719360
2023-05-15T07:58:38.742Z,9.719333
2023-05-15T07:59:38.788Z,9.719430
2023-05-15T08:00:38.954Z,9.719295
2023-05-15T08:01:38.734Z,9.719350
2023-05-15T08:02:38.830Z,9.719352
2023-05-15T08:03:38.830Z,9.719393
2023-05-15T08:04:38.731Z,9.719222
2023-05-15T08:05:38.754Z,9.719289
2023-05-15T08:06:38.679Z,9.719444
2023-05-15T08:07:38.695Z,9.719317
2023-05-15T08:08:38.709Z,9.719236
2023-05-15T08:09:38.642Z,9.719379
2023-05-15T08:10:38.635Z,9.719405
2023-05-15T08:11:38.629Z,9.719265
2023-05-15T08:12:38.629Z,9.719320
2023-05-15T08:13:38.624Z,9.719286
2023-05-15T08:14:38.711Z,9.719307
2023-05-15T08:15:38.611Z,9.719192
2023-05-15T08:16:38.575Z,9.719130
2023-05-15T08:17:38.635Z,9.719056
2023-05-15T08:18:38.661Z,9.719339
2023-05-15T08:19:38.566Z,9.719396
2023-05-15T08:20:38.619Z,9.719431
2023-05-15T08:21:38.517Z,9.719534
2023-05-15T08:22:38.525Z,9.719398
2023-05-15T08:23:38.514Z,9.719493
2023-05-15T08:24:38.487Z,9.719501
2023-05-15T08:25:38.550Z,9.719265
2023-05-15T08:26:38.480Z,9.719226
2023-05-15T08:27:38.463Z,9.719157
2023-05-15T08:28:38.479Z,9.719237
2023-05-15T08:29:39.591Z,9.719402
2023-05-15T08:30:39.459Z,9.719334
2023-05-15T08:31:38.452Z,9.719298
2023-05-15T08:32:38.464Z,9.719360
2023-05-15T08:33:38.408Z,9.719291
2023-05-15T08:34:38.410Z,9.719327
2023-05-15T08:35:38.402Z,9.719110
2023-05-15T08:36:39.078Z,9.719162
2023-05-15T08:37:38.386Z,9.719130
2023-05-15T08:38:38.362Z,9.719175
2023-05-15T08:39:38.341Z,9.719203
2023-05-15T08:40:40.057Z,9.719150
2023-05-15T08:41:41.009Z,9.719138
2023-05-15T08:42:39.320Z,9.719103
2023-05-15T08:43:38.318Z,9.719157
2023-05-15T08:44:38.299Z,9.719124
2023-05-15T08:45:38.315Z,9.719156
2023-05-15T08:46:38.334Z,9.719153
2023-05-15T08:47:38.353Z,9.719155
2023-05-15T08:48:38.373Z,9.719153
2023-05-15T08:49:38.295Z,9.719184
2023-05-15T08:50:38.231Z,9.719193
2023-05-15T08:51:39.251Z,9.719212
2023-05-15T08:52:38.216Z,9.719216
2023-05-15T08:53:38.229Z,9.719193
2023-05-15T08:54:38.260Z,9.719149
2023-05-15T08:55:38.191Z,9.719139
2023-05-15T08:56:38.184Z,9.719129
2023-05-15T08:57:38.180Z,9.719057
2023-05-15T08:58:38.157Z,9.719130
2023-05-15T08:59:38.174Z,9.719141
2023-05-15T09:00:38.132Z,9.719108
2023-05-15T09:01:38.160Z,9.719157
2023-05-15T09:02:38.142Z,9.719180
2023-05-15T09:03:38.197Z,9.719131
2023-05-15T09:04:38.096Z,9.719144
2023-05-15T09:05:40.072Z,9.719159
2023-05-15T09:06:39.105Z,9.719202
2023-05-15T09:07:38.064Z,9.719167
2023-05-15T09:08:38.063Z,9.719177
2023-05-15T09:09:38.045Z,9.719151
2023-05-15T09:10:38.043Z,9.719140
2023-05-15T09:11:38.039Z,9.719199
2023-05-15T09:12:38.065Z,9.719219
2023-05-15T09:13:37.996Z,9.719166
2023-05-15T09:14:37.989Z,9.719135
2023-05-15T09:15:37.995Z,9.719111
2023-05-15T09:16:38.039Z,9.719274
2023-05-15T09:17:38.047Z,9.719316
2023-05-15T09:18:37.977Z,9.719317
2023-05-15T09:19:37.950Z,9.719266
2023-05-15T09:20:37.935Z,9.719282
2023-05-15T09:21:37.954Z,9.719296
2023-05-15T09:22:37.940Z,9.719402
2023-05-15T09:23:37.909Z,9.719461
2023-05-15T09:24:37.905Z,9.719344
2023-05-15T09:25:37.906Z,9.719329
2023-05-15T09:26:37.878Z,9.719253
2023-05-15T09:27:37.927Z,9.719296
2023-05-15T09:28:37.840Z,9.719334
2023-05-15T09:29:37.834Z,9.719255
2023-05-15T09:30:37.872Z,9.719162
2023-05-15T09:31:37.903Z,9.719209
2023-05-15T09:32:37.875Z,9.719191
2023-05-15T09:33:37.792Z,9.719161
2023-05-15T09:34:37.812Z,9.719283
2023-05-15T09:35:37.818Z,9.719373
2023-05-15T09:36:37.801Z,9.719254
2023-05-15T09:37:37.767Z,9.719271
2023-05-15T09:38:37.828Z,9.719236
2023-05-15T09:39:37.738Z,9.719208
2023-05-15T09:40:37.834Z,9.719273
2023-05-15T09:41:37.727Z,9.719310
2023-05-15T09:42:37.708Z,9.719291
2023-05-15T09:43:37.763Z,9.719263
2023-05-15T09:44:37.725Z,9.719264
2023-05-15T09:45:37.704Z,9.719196
2023-05-15T09:46:37.777Z,9.719094
2023-05-15T09:47:37.835Z,9.719202
2023-05-15T09:48:37.716Z,9.719273
2023-05-15T09:49:37.702Z,9.719287
2023-05-15T09:50:37.637Z,9.719251
2023-05-15T09:51:37.639Z,9.719288
2023-05-15T09:52:37.635Z,9.719335
2023-05-15T09:53:37.598Z,9.719334
2023-05-15T09:54:37.610Z,9.719211
2023-05-15T09:55:37.668Z,9.719162
2023-05-15T09:56:37.588Z,9.719103
2023-05-15T09:57:37.586Z,9.719135
2023-05-15T09:58:37.569Z,9.719210
2023-05-15T09:59:37.546Z,9.719318
2023-05-15T10:00:47.996Z,9.719296
2023-05-15T10:01:38.560Z,9.719202
2023-05-15T10:02:37.531Z,9.719191
2023-05-15T10:03:37.512Z,9.719230
2023-05-15T10:04:37.497Z,9.719163
2023-05-15T10:05:43.796Z,9.719147
2023-05-15T10:06:41.978Z,9.719240
2023-05-15T10:07:37.482Z,9.719355
2023-05-15T10:08:37.478Z,9.719338
2023-05-15T10:09:37.498Z,9.719314
2023-05-15T10:10:37.535Z,9.719142
2023-05-15T10:11:37.451Z,9.719220
2023-05-15T10:12:37.500Z,9.719328
2023-05-15T10:13:37.420Z,9.719418
2023-05-15T10:14:37.429Z,9.719116
2023-05-15T10:15:37.400Z,9.719116
2023-05-15T10:16:37.441Z,9.719239
2023-05-15T10:17:37.373Z,9.719374
2023-05-15T10:18:37.474Z,9.719230
2023-05-15T10:19:44.070Z,9.719034
2023-05-15T10:20:39.345Z,9.719175
2023-05-15T10:21:37.375Z,9.719047
2023-05-15T10:22:37.312Z,9.719011
2023-05-15T10:23:37.310Z,9.719020
2023-05-15T10:24:37.324Z,9.719077
2023-05-15T10:25:37.308Z,9.718994
2023-05-15T10:26:37.363Z,9.718987
2023-05-15T10:27:37.297Z,9.719010
2023-05-15T10:28:37.251Z,9.718892
2023-05-15T10:29:37.258Z,9.718873
2023-05-15T10:30:37.281Z,9.718868
2023-05-15T10:31:37.261Z,9.718959
2023-05-15T10:32:37.272Z,9.719109
2023-05-15T10:33:37.223Z,9.719253
2023-05-15T10:34:37.199Z,9.719419
2023-05-15T10:35:37.239Z,9.719456
2023-05-15T10:36:37.959Z,9.719540
2023-05-15T10:37:37.189Z,9.719350
2023-05-15T10:38:37.161Z,9.719318
2023-05-15T10:39:37.143Z,9.719378
2023-05-15T10:40:37.145Z,9.719349
2023-05-15T10:41:37.127Z,9.719425
2023-05-15T10:42:37.160Z,9.719401
2023-05-15T10:43:37.154Z,9.719343
2023-05-15T10:45:09.024Z,9.719236
2023-05-15T10:45:37.121Z,9.719264
2023-05-15T10:46:37.166Z,9.719234
2023-05-15T10:47:37.114Z,9.719227
2023-05-15T10:48:37.083Z,9.719217
2023-05-15T10:49:37.054Z,9.719288
2023-05-15T10:50:37.064Z,9.719206
2023-05-15T10:51:37.040Z,9.719142
2023-05-15T10:52:37.063Z,9.719046
2023-05-15T10:53:37.040Z,9.719004
2023-05-15T10:54:37.022Z,9.719147
2023-05-15T10:55:37.016Z,9.719050
2023-05-15T10:56:37.022Z,9.719080
2023-05-15T10:57:37.019Z,9.719006
2023-05-15T10:58:37.039Z,9.719034
2023-05-15T10:59:36.992Z,9.718810
2023-05-15T11:00:36.996Z,9.718831
2023-05-15T11:01:37.002Z,9.719101
2023-05-15T11:02:36.962Z,9.719086
2023-05-15T11:03:47.871Z,9.719098
2023-05-15T11:04:38.950Z,9.719131
2023-05-15T11:05:36.932Z,9.718966
2023-05-15T11:06:36.906Z,9.719014
2023-05-15T11:07:36.889Z,9.719091
2023-05-15T11:08:37.003Z,9.719106
2023-05-15T11:09:36.872Z,9.719147
2023-05-15T11:10:36.900Z,9.719084
2023-05-15T11:11:36.946Z,9.719126
2023-05-15T11:12:36.827Z,9.719114
2023-05-15T11:13:36.823Z,9.719096
2023-05-15T11:14:36.807Z,9.719153
2023-05-15T11:15:36.787Z,9.719174
2023-05-15T11:16:36.874Z,9.719209
2023-05-15T11:17:36.794Z,9.719178
2023-05-15T11:18:36.793Z,9.719155
2023-05-15T11:19:36.773Z,9.719116
2023-05-15T11:20:37.275Z,9.719152
2023-05-15T11:21:37.733Z,9.719237
2023-05-15T11:22:36.761Z,9.719187
2023-05-15T11:23:36.723Z,9.719137
2023-05-15T11:24:36.719Z,9.719185
2023-05-15T11:25:36.727Z,9.719198
2023-05-15T11:26:36.688Z,9.719264
2023-05-15T11:27:36.677Z,9.719239
2023-05-15T11:28:36.682Z,9.719233
2023-05-15T11:29:36.658Z,9.719184
2023-05-15T11:30:36.670Z,9.719206
2023-05-15T11:31:36.697Z,9.719240
2023-05-15T11:32:36.684Z,9.719269
2023-05-15T11:33:36.631Z,9.719256
2023-05-15T11:34:36.618Z,9.719300
2023-05-15T11:35:36.607Z,9.719281
2023-05-15T11:36:37.691Z,9.718786
2023-05-15T11:37:36.626Z,9.718684
2023-05-15T11:38:36.568Z,9.718554
2023-05-15T11:39:37.595Z,9.718469
2023-05-15T11:40:36.557Z,9.718442
2023-05-15T11:41:36.557Z,9.718741
2023-05-15T11:42:36.530Z,9.718816
2023-05-15T11:43:36.556Z,9.719275
2023-05-15T11:44:36.563Z,9.719540